sensor_id;sensor_type;location;lat;lon;timestamp;P1;durP1;ratioP1;P2;durP2;ratioP2
62711;SDS011;48772;55.586;37.730;2024-03-02T00:00:20;82.35;;;35.03;;
62711;SDS011;48772;55.586;37.730;2024-03-02T00:02:47;77.38;;;34.45;;
62711;SDS011;48772;55.586;37.730;2024-03-02T00:05:13;76.53;;;34.50;;
62711;SDS011;48772;55.586;37.730;2024-03-02T00:07:43;77.68;;;34.55;;
62711;SDS011;48772;55.586;37.730;2024-03-02T00:10:09;69.80;;;33.75;;
62711;SDS011;48772;55.586;37.730;2024-03-02T00:12:39;69.18;;;33.97;;
62711;SDS011;48772;55.586;37.730;2024-03-02T00:15:05;78.85;;;36.05;;
62711;SDS011;48772;55.586;37.730;2024-03-02T00:17:32;83.05;;;35.95;;
62711;SDS011;48772;55.586;37.730;2024-03-02T00:19:58;83.28;;;36.53;;
62711;SDS011;48772;55.586;37.730;2024-03-02T00:22:23;90.82;;;38.67;;
62711;SDS011;48772;55.586;37.730;2024-03-02T00:24:49;88.00;;;37.35;;
62711;SDS011;48772;55.586;37.730;2024-03-02T00:27:14;78.53;;;35.63;;
62711;SDS011;48772;55.586;37.730;2024-03-02T00:29:40;85.60;;;36.40;;
62711;SDS011;48772;55.586;37.730;2024-03-02T00:32:11;82.30;;;35.00;;
62711;SDS011;48772;55.586;37.730;2024-03-02T00:34:37;79.68;;;35.13;;
62711;SDS011;48772;55.586;37.730;2024-03-02T00:37:03;80.00;;;36.53;;
62711;SDS011;48772;55.586;37.730;2024-03-02T00:39:29;76.10;;;36.15;;
62711;SDS011;48772;55.586;37.730;2024-03-02T00:41:54;80.47;;;35.88;;
62711;SDS011;48772;55.586;37.730;2024-03-02T00:44:20;77.95;;;36.78;;
62711;SDS011;48772;55.586;37.730;2024-03-02T00:46:48;79.78;;;34.47;;
62711;SDS011;48772;55.586;37.730;2024-03-02T00:49:24;72.38;;;33.92;;
62711;SDS011;48772;55.586;37.730;2024-03-02T00:51:50;75.72;;;32.92;;
62711;SDS011;48772;55.586;37.730;2024-03-02T00:54:25;73.57;;;33.92;;
62711;SDS011;48772;55.586;37.730;2024-03-02T00:56:52;81.70;;;34.75;;
62711;SDS011;48772;55.586;37.730;2024-03-02T00:59:17;81.43;;;33.35;;
62711;SDS011;48772;55.586;37.730;2024-03-02T01:01:43;78.30;;;33.58;;
62711;SDS011;48772;55.586;37.730;2024-03-02T01:04:09;73.82;;;33.80;;
62711;SDS011;48772;55.586;37.730;2024-03-02T01:06:34;62.33;;;31.40;;
62711;SDS011;48772;55.586;37.730;2024-03-02T01:09:00;64.22;;;29.90;;
62711;SDS011;48772;55.586;37.730;2024-03-02T01:11:26;64.53;;;28.48;;
62711;SDS011;48772;55.586;37.730;2024-03-02T01:13:52;60.65;;;29.67;;
62711;SDS011;48772;55.586;37.730;2024-03-02T01:16:17;69.05;;;30.83;;
62711;SDS011;48772;55.586;37.730;2024-03-02T01:18:43;71.32;;;32.67;;
62711;SDS011;48772;55.586;37.730;2024-03-02T01:21:09;66.30;;;31.52;;
62711;SDS011;48772;55.586;37.730;2024-03-02T01:23:34;67.10;;;31.20;;
62711;SDS011;48772;55.586;37.730;2024-03-02T01:26:00;71.03;;;30.33;;
62711;SDS011;48772;55.586;37.730;2024-03-02T01:28:25;69.22;;;33.10;;
62711;SDS011;48772;55.586;37.730;2024-03-02T01:30:51;76.53;;;34.92;;
62711;SDS011;48772;55.586;37.730;2024-03-02T01:33:17;65.18;;;32.40;;
62711;SDS011;48772;55.586;37.730;2024-03-02T01:35:43;72.82;;;34.95;;
62711;SDS011;48772;55.586;37.730;2024-03-02T01:38:09;73.90;;;34.05;;
62711;SDS011;48772;55.586;37.730;2024-03-02T01:40:35;81.70;;;36.35;;
62711;SDS011;48772;55.586;37.730;2024-03-02T01:43:01;76.95;;;34.33;;
62711;SDS011;48772;55.586;37.730;2024-03-02T01:45:28;79.60;;;36.70;;
62711;SDS011;48772;55.586;37.730;2024-03-02T01:47:54;71.00;;;35.67;;
62711;SDS011;48772;55.586;37.730;2024-03-02T01:50:30;72.90;;;35.65;;
62711;SDS011;48772;55.586;37.730;2024-03-02T01:52:56;76.80;;;36.30;;
62711;SDS011;48772;55.586;37.730;2024-03-02T01:55:22;82.53;;;36.85;;
62711;SDS011;48772;55.586;37.730;2024-03-02T01:57:48;76.45;;;36.70;;
62711;SDS011;48772;55.586;37.730;2024-03-02T02:00:14;85.38;;;36.50;;
62711;SDS011;48772;55.586;37.730;2024-03-02T02:02:40;76.57;;;34.72;;
62711;SDS011;48772;55.586;37.730;2024-03-02T02:05:06;83.82;;;34.83;;
62711;SDS011;48772;55.586;37.730;2024-03-02T02:07:31;69.35;;;32.22;;
62711;SDS011;48772;55.586;37.730;2024-03-02T02:09:58;81.97;;;35.70;;
62711;SDS011;48772;55.586;37.730;2024-03-02T02:12:24;70.97;;;33.53;;
62711;SDS011;48772;55.586;37.730;2024-03-02T02:14:50;73.88;;;34.03;;
62711;SDS011;48772;55.586;37.730;2024-03-02T02:17:16;70.28;;;33.90;;
62711;SDS011;48772;55.586;37.730;2024-03-02T02:19:42;78.65;;;33.03;;
62711;SDS011;48772;55.586;37.730;2024-03-02T02:22:08;68.03;;;32.90;;
62711;SDS011;48772;55.586;37.730;2024-03-02T02:24:34;70.72;;;34.65;;
62711;SDS011;48772;55.586;37.730;2024-03-02T02:26:59;70.72;;;32.97;;
62711;SDS011;48772;55.586;37.730;2024-03-02T02:29:25;64.13;;;32.17;;
62711;SDS011;48772;55.586;37.730;2024-03-02T02:31:50;74.03;;;31.98;;
62711;SDS011;48772;55.586;37.730;2024-03-02T02:34:16;67.22;;;33.55;;
62711;SDS011;48772;55.586;37.730;2024-03-02T02:36:42;78.60;;;34.10;;
62711;SDS011;48772;55.586;37.730;2024-03-02T02:39:14;69.72;;;34.25;;
62711;SDS011;48772;55.586;37.730;2024-03-02T02:41:41;64.53;;;33.13;;
62711;SDS011;48772;55.586;37.730;2024-03-02T02:44:06;72.28;;;33.35;;
62711;SDS011;48772;55.586;37.730;2024-03-02T02:46:32;74.57;;;33.38;;
62711;SDS011;48772;55.586;37.730;2024-03-02T02:48:57;69.53;;;33.75;;
62711;SDS011;48772;55.586;37.730;2024-03-02T02:51:23;68.97;;;30.30;;
62711;SDS011;48772;55.586;37.730;2024-03-02T02:53:51;66.90;;;30.35;;
62711;SDS011;48772;55.586;37.730;2024-03-02T02:56:16;68.38;;;32.35;;
62711;SDS011;48772;55.586;37.730;2024-03-02T02:58:42;75.03;;;33.67;;
62711;SDS011;48772;55.586;37.730;2024-03-02T03:01:08;76.85;;;38.50;;
62711;SDS011;48772;55.586;37.730;2024-03-02T03:03:34;71.60;;;33.42;;
62711;SDS011;48772;55.586;37.730;2024-03-02T03:05:59;74.13;;;34.95;;
62711;SDS011;48772;55.586;37.730;2024-03-02T03:08:25;79.93;;;37.88;;
62711;SDS011;48772;55.586;37.730;2024-03-02T03:10:51;84.10;;;37.25;;
62711;SDS011;48772;55.586;37.730;2024-03-02T03:13:16;85.40;;;36.25;;
62711;SDS011;48772;55.586;37.730;2024-03-02T03:15:42;79.47;;;35.10;;
62711;SDS011;48772;55.586;37.730;2024-03-02T03:18:08;76.22;;;35.90;;
62711;SDS011;48772;55.586;37.730;2024-03-02T03:20:35;84.07;;;37.78;;
62711;SDS011;48772;55.586;37.730;2024-03-02T03:23:01;81.00;;;36.83;;
62711;SDS011;48772;55.586;37.730;2024-03-02T03:25:27;74.60;;;36.33;;
62711;SDS011;48772;55.586;37.730;2024-03-02T03:27:52;73.50;;;35.65;;
62711;SDS011;48772;55.586;37.730;2024-03-02T03:30:18;76.13;;;36.95;;
62711;SDS011;48772;55.586;37.730;2024-03-02T03:32:44;80.82;;;35.63;;
62711;SDS011;48772;55.586;37.730;2024-03-02T03:35:09;80.22;;;35.22;;
62711;SDS011;48772;55.586;37.730;2024-03-02T03:37:35;72.60;;;35.53;;
62711;SDS011;48772;55.586;37.730;2024-03-02T03:40:02;78.95;;;34.15;;
62711;SDS011;48772;55.586;37.730;2024-03-02T03:42:29;76.93;;;33.45;;
62711;SDS011;48772;55.586;37.730;2024-03-02T03:44:55;76.38;;;33.33;;
62711;SDS011;48772;55.586;37.730;2024-03-02T03:47:21;76.13;;;35.75;;
62711;SDS011;48772;55.586;37.730;2024-03-02T03:49:46;70.30;;;33.88;;
62711;SDS011;48772;55.586;37.730;2024-03-02T03:52:12;77.30;;;35.75;;
62711;SDS011;48772;55.586;37.730;2024-03-02T03:54:37;74.88;;;36.35;;
62711;SDS011;48772;55.586;37.730;2024-03-02T03:57:03;72.40;;;34.30;;
62711;SDS011;48772;55.586;37.730;2024-03-02T03:59:29;74.60;;;36.35;;
62711;SDS011;48772;55.586;37.730;2024-03-02T04:01:55;73.07;;;34.95;;
62711;SDS011;48772;55.586;37.730;2024-03-02T04:04:20;76.82;;;35.25;;
62711;SDS011;48772;55.586;37.730;2024-03-02T04:06:46;80.68;;;34.95;;
62711;SDS011;48772;55.586;37.730;2024-03-02T04:09:11;77.70;;;35.20;;
62711;SDS011;48772;55.586;37.730;2024-03-02T04:11:37;70.00;;;34.90;;
62711;SDS011;48772;55.586;37.730;2024-03-02T04:14:02;76.05;;;36.15;;
62711;SDS011;48772;55.586;37.730;2024-03-02T04:16:28;75.97;;;35.60;;
62711;SDS011;48772;55.586;37.730;2024-03-02T04:18:54;75.70;;;35.65;;
62711;SDS011;48772;55.586;37.730;2024-03-02T04:21:20;76.18;;;35.85;;
62711;SDS011;48772;55.586;37.730;2024-03-02T04:23:45;84.38;;;37.17;;
62711;SDS011;48772;55.586;37.730;2024-03-02T04:26:11;81.78;;;37.53;;
62711;SDS011;48772;55.586;37.730;2024-03-02T04:28:37;89.85;;;38.13;;
62711;SDS011;48772;55.586;37.730;2024-03-02T04:31:02;87.45;;;39.03;;
62711;SDS011;48772;55.586;37.730;2024-03-02T04:33:28;83.75;;;37.65;;
62711;SDS011;48772;55.586;37.730;2024-03-02T04:35:54;74.65;;;37.83;;
62711;SDS011;48772;55.586;37.730;2024-03-02T04:38:20;87.88;;;36.22;;
62711;SDS011;48772;55.586;37.730;2024-03-02T04:40:45;74.72;;;35.38;;
62711;SDS011;48772;55.586;37.730;2024-03-02T04:43:11;75.63;;;35.97;;
62711;SDS011;48772;55.586;37.730;2024-03-02T04:45:40;79.43;;;34.05;;
62711;SDS011;48772;55.586;37.730;2024-03-02T04:48:06;75.25;;;32.85;;
62711;SDS011;48772;55.586;37.730;2024-03-02T04:50:31;75.03;;;34.10;;
62711;SDS011;48772;55.586;37.730;2024-03-02T04:52:57;64.50;;;31.27;;
62711;SDS011;48772;55.586;37.730;2024-03-02T04:55:23;65.97;;;31.33;;
62711;SDS011;48772;55.586;37.730;2024-03-02T04:58:14;70.60;;;31.15;;
62711;SDS011;48772;55.586;37.730;2024-03-02T05:00:40;75.68;;;32.00;;
62711;SDS011;48772;55.586;37.730;2024-03-02T05:03:08;68.25;;;29.85;;
62711;SDS011;48772;55.586;37.730;2024-03-02T05:05:34;61.80;;;30.00;;
62711;SDS011;48772;55.586;37.730;2024-03-02T05:08:00;63.22;;;31.05;;
62711;SDS011;48772;55.586;37.730;2024-03-02T05:10:26;73.45;;;32.95;;
62711;SDS011;48772;55.586;37.730;2024-03-02T05:12:51;71.07;;;33.17;;
62711;SDS011;48772;55.586;37.730;2024-03-02T05:15:24;67.25;;;30.42;;
62711;SDS011;48772;55.586;37.730;2024-03-02T05:17:50;70.40;;;32.85;;
62711;SDS011;48772;55.586;37.730;2024-03-02T05:20:16;77.70;;;33.47;;
62711;SDS011;48772;55.586;37.730;2024-03-02T05:22:42;75.38;;;34.50;;
62711;SDS011;48772;55.586;37.730;2024-03-02T05:25:08;72.10;;;33.05;;
62711;SDS011;48772;55.586;37.730;2024-03-02T05:27:35;78.93;;;34.47;;
62711;SDS011;48772;55.586;37.730;2024-03-02T05:30:00;68.50;;;33.67;;
62711;SDS011;48772;55.586;37.730;2024-03-02T05:32:27;64.35;;;30.77;;
62711;SDS011;48772;55.586;37.730;2024-03-02T05:34:52;68.10;;;33.88;;
62711;SDS011;48772;55.586;37.730;2024-03-02T05:37:18;78.95;;;35.55;;
62711;SDS011;48772;55.586;37.730;2024-03-02T05:39:44;79.53;;;36.13;;
62711;SDS011;48772;55.586;37.730;2024-03-02T05:42:09;76.18;;;35.75;;
62711;SDS011;48772;55.586;37.730;2024-03-02T05:44:35;80.88;;;33.78;;
62711;SDS011;48772;55.586;37.730;2024-03-02T05:47:01;77.10;;;34.92;;
62711;SDS011;48772;55.586;37.730;2024-03-02T05:49:27;65.00;;;34.33;;
62711;SDS011;48772;55.586;37.730;2024-03-02T05:51:52;73.18;;;34.22;;
62711;SDS011;48772;55.586;37.730;2024-03-02T05:54:18;70.07;;;33.63;;
62711;SDS011;48772;55.586;37.730;2024-03-02T05:56:43;74.40;;;34.22;;
62711;SDS011;48772;55.586;37.730;2024-03-02T05:59:09;67.25;;;34.53;;
62711;SDS011;48772;55.586;37.730;2024-03-02T06:04:10;76.90;;;36.17;;
62711;SDS011;48772;55.586;37.730;2024-03-02T06:06:39;65.78;;;34.08;;
62711;SDS011;48772;55.586;37.730;2024-03-02T06:09:05;77.28;;;34.55;;
62711;SDS011;48772;55.586;37.730;2024-03-02T06:11:36;72.78;;;34.50;;
62711;SDS011;48772;55.586;37.730;2024-03-02T06:14:03;76.38;;;35.33;;
62711;SDS011;48772;55.586;37.730;2024-03-02T06:16:29;67.40;;;34.05;;
62711;SDS011;48772;55.586;37.730;2024-03-02T06:18:55;63.88;;;34.28;;
62711;SDS011;48772;55.586;37.730;2024-03-02T06:21:26;64.18;;;31.65;;
62711;SDS011;48772;55.586;37.730;2024-03-02T06:23:51;69.78;;;36.17;;
62711;SDS011;48772;55.586;37.730;2024-03-02T06:26:17;66.28;;;32.72;;
62711;SDS011;48772;55.586;37.730;2024-03-02T06:28:43;63.28;;;33.05;;
62711;SDS011;48772;55.586;37.730;2024-03-02T06:31:09;63.83;;;32.15;;
62711;SDS011;48772;55.586;37.730;2024-03-02T06:33:35;59.40;;;31.98;;
62711;SDS011;48772;55.586;37.730;2024-03-02T06:36:01;67.47;;;32.10;;
62711;SDS011;48772;55.586;37.730;2024-03-02T06:38:27;68.88;;;33.45;;
62711;SDS011;48772;55.586;37.730;2024-03-02T06:40:52;67.82;;;34.15;;
62711;SDS011;48772;55.586;37.730;2024-03-02T06:43:18;67.57;;;31.20;;
62711;SDS011;48772;55.586;37.730;2024-03-02T06:45:49;62.03;;;32.55;;
62711;SDS011;48772;55.586;37.730;2024-03-02T06:48:14;60.75;;;30.35;;
62711;SDS011;48772;55.586;37.730;2024-03-02T06:50:45;61.85;;;30.63;;
62711;SDS011;48772;55.586;37.730;2024-03-02T06:53:10;59.55;;;29.45;;
62711;SDS011;48772;55.586;37.730;2024-03-02T06:55:36;63.85;;;31.80;;
62711;SDS011;48772;55.586;37.730;2024-03-02T06:58:01;65.18;;;32.17;;
62711;SDS011;48772;55.586;37.730;2024-03-02T07:00:27;61.88;;;31.20;;
62711;SDS011;48772;55.586;37.730;2024-03-02T07:02:53;60.50;;;29.33;;
62711;SDS011;48772;55.586;37.730;2024-03-02T07:05:18;61.47;;;30.30;;
62711;SDS011;48772;55.586;37.730;2024-03-02T07:07:44;62.92;;;28.50;;
62711;SDS011;48772;55.586;37.730;2024-03-02T07:10:10;62.33;;;30.92;;
62711;SDS011;48772;55.586;37.730;2024-03-02T07:12:35;67.57;;;31.15;;
62711;SDS011;48772;55.586;37.730;2024-03-02T07:15:01;68.95;;;34.08;;
62711;SDS011;48772;55.586;37.730;2024-03-02T07:17:32;64.97;;;31.65;;
62711;SDS011;48772;55.586;37.730;2024-03-02T07:19:58;61.55;;;33.45;;
62711;SDS011;48772;55.586;37.730;2024-03-02T07:22:23;60.03;;;31.90;;
62711;SDS011;48772;55.586;37.730;2024-03-02T07:24:49;61.20;;;31.10;;
62711;SDS011;48772;55.586;37.730;2024-03-02T07:27:15;61.78;;;31.08;;
62711;SDS011;48772;55.586;37.730;2024-03-02T07:29:41;55.58;;;29.75;;
62711;SDS011;48772;55.586;37.730;2024-03-02T07:32:07;55.03;;;28.55;;
62711;SDS011;48772;55.586;37.730;2024-03-02T07:34:33;55.45;;;28.50;;
62711;SDS011;48772;55.586;37.730;2024-03-02T07:36:59;58.42;;;31.08;;
62711;SDS011;48772;55.586;37.730;2024-03-02T07:39:25;50.72;;;27.27;;
62711;SDS011;48772;55.586;37.730;2024-03-02T07:41:50;53.75;;;28.25;;
62711;SDS011;48772;55.586;37.730;2024-03-02T07:44:16;52.78;;;28.17;;
62711;SDS011;48772;55.586;37.730;2024-03-02T07:46:47;48.35;;;27.63;;
62711;SDS011;48772;55.586;37.730;2024-03-02T07:49:15;51.28;;;28.45;;
62711;SDS011;48772;55.586;37.730;2024-03-02T07:51:40;48.80;;;28.48;;
62711;SDS011;48772;55.586;37.730;2024-03-02T07:54:06;50.85;;;29.52;;
62711;SDS011;48772;55.586;37.730;2024-03-02T07:56:32;50.58;;;28.90;;
62711;SDS011;48772;55.586;37.730;2024-03-02T07:58:57;54.08;;;29.98;;
62711;SDS011;48772;55.586;37.730;2024-03-02T08:01:27;52.25;;;28.35;;
62711;SDS011;48772;55.586;37.730;2024-03-02T08:03:53;48.15;;;26.35;;
62711;SDS011;48772;55.586;37.730;2024-03-02T08:06:18;47.95;;;27.08;;
62711;SDS011;48772;55.586;37.730;2024-03-02T08:08:46;49.83;;;27.88;;
62711;SDS011;48772;55.586;37.730;2024-03-02T08:11:12;47.80;;;26.67;;
62711;SDS011;48772;55.586;37.730;2024-03-02T08:13:38;49.90;;;27.88;;
62711;SDS011;48772;55.586;37.730;2024-03-02T08:16:03;47.03;;;25.77;;
62711;SDS011;48772;55.586;37.730;2024-03-02T08:18:32;48.28;;;27.85;;
62711;SDS011;48772;55.586;37.730;2024-03-02T08:20:57;50.47;;;28.83;;
62711;SDS011;48772;55.586;37.730;2024-03-02T08:23:23;47.15;;;27.92;;
62711;SDS011;48772;55.586;37.730;2024-03-02T08:25:49;44.58;;;26.30;;
62711;SDS011;48772;55.586;37.730;2024-03-02T08:28:14;51.33;;;28.80;;
62711;SDS011;48772;55.586;37.730;2024-03-02T08:30:40;53.88;;;29.25;;
62711;SDS011;48772;55.586;37.730;2024-03-02T08:33:06;56.97;;;30.90;;
62711;SDS011;48772;55.586;37.730;2024-03-02T08:35:31;52.97;;;28.90;;
62711;SDS011;48772;55.586;37.730;2024-03-02T08:38:04;53.60;;;27.27;;
62711;SDS011;48772;55.586;37.730;2024-03-02T08:40:31;51.55;;;28.73;;
62711;SDS011;48772;55.586;37.730;2024-03-02T08:42:56;54.72;;;29.63;;
62711;SDS011;48772;55.586;37.730;2024-03-02T08:45:22;50.58;;;28.45;;
62711;SDS011;48772;55.586;37.730;2024-03-02T08:47:48;55.35;;;29.15;;
62711;SDS011;48772;55.586;37.730;2024-03-02T08:50:14;56.30;;;29.00;;
62711;SDS011;48772;55.586;37.730;2024-03-02T08:52:39;56.85;;;29.85;;
62711;SDS011;48772;55.586;37.730;2024-03-02T08:55:06;52.58;;;29.30;;
62711;SDS011;48772;55.586;37.730;2024-03-02T08:57:32;51.60;;;28.63;;
62711;SDS011;48772;55.586;37.730;2024-03-02T08:59:58;56.38;;;30.27;;
62711;SDS011;48772;55.586;37.730;2024-03-02T09:02:24;54.20;;;30.05;;
62711;SDS011;48772;55.586;37.730;2024-03-02T09:04:50;52.58;;;28.48;;
62711;SDS011;48772;55.586;37.730;2024-03-02T09:07:15;61.30;;;29.50;;
62711;SDS011;48772;55.586;37.730;2024-03-02T09:09:41;51.10;;;29.35;;
62711;SDS011;48772;55.586;37.730;2024-03-02T09:12:07;56.22;;;29.60;;
62711;SDS011;48772;55.586;37.730;2024-03-02T09:14:33;59.70;;;30.83;;
62711;SDS011;48772;55.586;37.730;2024-03-02T09:16:58;57.90;;;31.23;;
62711;SDS011;48772;55.586;37.730;2024-03-02T09:19:24;61.00;;;33.00;;
62711;SDS011;48772;55.586;37.730;2024-03-02T09:21:49;60.10;;;32.03;;
62711;SDS011;48772;55.586;37.730;2024-03-02T09:24:15;57.67;;;33.10;;
62711;SDS011;48772;55.586;37.730;2024-03-02T09:26:41;57.17;;;32.95;;
62711;SDS011;48772;55.586;37.730;2024-03-02T09:29:06;55.65;;;32.65;;
62711;SDS011;48772;55.586;37.730;2024-03-02T09:31:32;52.63;;;30.73;;
62711;SDS011;48772;55.586;37.730;2024-03-02T09:33:58;60.33;;;32.67;;
62711;SDS011;48772;55.586;37.730;2024-03-02T09:36:23;63.08;;;32.42;;
62711;SDS011;48772;55.586;37.730;2024-03-02T09:38:49;63.47;;;36.53;;
62711;SDS011;48772;55.586;37.730;2024-03-02T09:41:15;57.92;;;33.63;;
62711;SDS011;48772;55.586;37.730;2024-03-02T09:43:41;67.55;;;38.22;;
62711;SDS011;48772;55.586;37.730;2024-03-02T09:46:08;68.75;;;39.25;;
62711;SDS011;48772;55.586;37.730;2024-03-02T09:48:34;72.43;;;43.70;;
62711;SDS011;48772;55.586;37.730;2024-03-02T09:51:00;68.90;;;42.78;;
62711;SDS011;48772;55.586;37.730;2024-03-02T09:53:28;71.28;;;40.38;;
62711;SDS011;48772;55.586;37.730;2024-03-02T09:55:56;71.88;;;41.88;;
62711;SDS011;48772;55.586;37.730;2024-03-02T09:58:22;54.65;;;33.90;;
62711;SDS011;48772;55.586;37.730;2024-03-02T10:00:47;55.53;;;32.00;;
62711;SDS011;48772;55.586;37.730;2024-03-02T10:03:14;50.35;;;32.05;;
62711;SDS011;48772;55.586;37.730;2024-03-02T10:05:40;53.35;;;31.17;;
62711;SDS011;48772;55.586;37.730;2024-03-02T10:08:06;54.25;;;31.25;;
62711;SDS011;48772;55.586;37.730;2024-03-02T10:10:38;51.33;;;32.05;;
62711;SDS011;48772;55.586;37.730;2024-03-02T10:13:12;53.17;;;30.30;;
62711;SDS011;48772;55.586;37.730;2024-03-02T10:15:39;51.25;;;30.77;;
62711;SDS011;48772;55.586;37.730;2024-03-02T10:18:09;50.72;;;30.58;;
62711;SDS011;48772;55.586;37.730;2024-03-02T10:20:36;43.13;;;26.88;;
62711;SDS011;48772;55.586;37.730;2024-03-02T10:23:35;40.00;;;22.38;;
62711;SDS011;48772;55.586;37.730;2024-03-02T10:25:53;40.63;;;24.50;;
62711;SDS011;48772;55.586;37.730;2024-03-02T10:28:19;37.72;;;24.83;;
62711;SDS011;48772;55.586;37.730;2024-03-02T10:30:47;41.67;;;24.50;;
62711;SDS011;48772;55.586;37.730;2024-03-02T10:33:12;35.20;;;23.08;;
62711;SDS011;48772;55.586;37.730;2024-03-02T10:35:38;41.78;;;23.60;;
62711;SDS011;48772;55.586;37.730;2024-03-02T10:38:04;40.78;;;25.30;;
62711;SDS011;48772;55.586;37.730;2024-03-02T10:40:31;42.78;;;25.85;;
62711;SDS011;48772;55.586;37.730;2024-03-02T10:42:57;39.63;;;24.35;;
62711;SDS011;48772;55.586;37.730;2024-03-02T10:45:24;40.88;;;25.77;;
62711;SDS011;48772;55.586;37.730;2024-03-02T10:47:50;42.15;;;25.00;;
62711;SDS011;48772;55.586;37.730;2024-03-02T10:50:16;43.88;;;24.65;;
62711;SDS011;48772;55.586;37.730;2024-03-02T10:52:42;43.63;;;26.05;;
62711;SDS011;48772;55.586;37.730;2024-03-02T10:55:08;38.17;;;25.05;;
62711;SDS011;48772;55.586;37.730;2024-03-02T10:57:53;39.45;;;23.10;;
62711;SDS011;48772;55.586;37.730;2024-03-02T11:00:20;37.50;;;22.33;;
62711;SDS011;48772;55.586;37.730;2024-03-02T11:03:02;36.78;;;22.40;;
62711;SDS011;48772;55.586;37.730;2024-03-02T11:05:31;38.50;;;23.60;;
62711;SDS011;48772;55.586;37.730;2024-03-02T11:08:00;40.63;;;22.15;;
62711;SDS011;48772;55.586;37.730;2024-03-02T11:10:28;37.30;;;24.17;;
62711;SDS011;48772;55.586;37.730;2024-03-02T11:12:58;38.95;;;22.80;;
62711;SDS011;48772;55.586;37.730;2024-03-02T11:15:26;42.05;;;22.45;;
62711;SDS011;48772;55.586;37.730;2024-03-02T11:17:52;44.22;;;23.73;;
62711;SDS011;48772;55.586;37.730;2024-03-02T11:20:19;37.92;;;24.33;;
62711;SDS011;48772;55.586;37.730;2024-03-02T11:22:45;38.17;;;21.58;;
62711;SDS011;48772;55.586;37.730;2024-03-02T11:25:24;38.88;;;21.85;;
62711;SDS011;48772;55.586;37.730;2024-03-02T11:32:57;36.55;;;18.77;;
62711;SDS011;48772;55.586;37.730;2024-03-02T11:35:26;35.28;;;19.15;;
62711;SDS011;48772;55.586;37.730;2024-03-02T11:37:53;45.97;;;23.60;;
62711;SDS011;48772;55.586;37.730;2024-03-02T11:40:22;39.10;;;20.58;;
62711;SDS011;48772;55.586;37.730;2024-03-02T11:42:48;37.38;;;20.65;;
62711;SDS011;48772;55.586;37.730;2024-03-02T11:45:17;35.75;;;20.10;;
62711;SDS011;48772;55.586;37.730;2024-03-02T11:47:46;40.15;;;20.95;;
62711;SDS011;48772;55.586;37.730;2024-03-02T11:50:15;34.67;;;20.20;;
62711;SDS011;48772;55.586;37.730;2024-03-02T11:52:41;38.45;;;20.75;;
62711;SDS011;48772;55.586;37.730;2024-03-02T11:55:07;38.03;;;19.50;;
62711;SDS011;48772;55.586;37.730;2024-03-02T11:57:34;36.40;;;19.90;;
62711;SDS011;48772;55.586;37.730;2024-03-02T12:00:00;39.20;;;19.83;;
62711;SDS011;48772;55.586;37.730;2024-03-02T12:02:30;36.35;;;20.75;;
62711;SDS011;48772;55.586;37.730;2024-03-02T12:04:56;40.97;;;18.88;;
62711;SDS011;48772;55.586;37.730;2024-03-02T12:07:22;36.33;;;19.33;;
62711;SDS011;48772;55.586;37.730;2024-03-02T12:09:49;33.95;;;18.52;;
62711;SDS011;48772;55.586;37.730;2024-03-02T12:12:24;37.40;;;17.77;;
62711;SDS011;48772;55.586;37.730;2024-03-02T12:14:50;33.83;;;17.67;;
62711;SDS011;48772;55.586;37.730;2024-03-02T12:17:17;34.10;;;17.45;;
62711;SDS011;48772;55.586;37.730;2024-03-02T12:19:43;34.47;;;19.42;;
62711;SDS011;48772;55.586;37.730;2024-03-02T12:22:09;28.58;;;15.68;;
62711;SDS011;48772;55.586;37.730;2024-03-02T12:24:35;33.53;;;17.83;;
62711;SDS011;48772;55.586;37.730;2024-03-02T12:27:03;36.13;;;18.85;;
62711;SDS011;48772;55.586;37.730;2024-03-02T12:29:28;37.13;;;17.48;;
62711;SDS011;48772;55.586;37.730;2024-03-02T12:31:54;33.55;;;17.95;;
62711;SDS011;48772;55.586;37.730;2024-03-02T12:34:20;32.80;;;16.55;;
62711;SDS011;48772;55.586;37.730;2024-03-02T12:36:46;29.13;;;14.98;;
62711;SDS011;48772;55.586;37.730;2024-03-02T12:39:18;27.15;;;13.80;;
62711;SDS011;48772;55.586;37.730;2024-03-02T12:41:45;28.90;;;16.23;;
62711;SDS011;48772;55.586;37.730;2024-03-02T12:44:11;25.88;;;15.10;;
62711;SDS011;48772;55.586;37.730;2024-03-02T12:46:36;30.13;;;14.75;;
62711;SDS011;48772;55.586;37.730;2024-03-02T12:49:07;31.95;;;16.35;;
62711;SDS011;48772;55.586;37.730;2024-03-02T12:51:33;27.63;;;14.60;;
62711;SDS011;48772;55.586;37.730;2024-03-02T12:54:01;33.88;;;15.35;;
62711;SDS011;48772;55.586;37.730;2024-03-02T12:56:26;27.58;;;14.70;;
62711;SDS011;48772;55.586;37.730;2024-03-02T12:58:56;31.10;;;16.17;;
62711;SDS011;48772;55.586;37.730;2024-03-02T13:01:21;26.67;;;14.32;;
62711;SDS011;48772;55.586;37.730;2024-03-02T13:03:48;28.08;;;16.55;;
62711;SDS011;48772;55.586;37.730;2024-03-02T13:06:17;32.90;;;16.88;;
62711;SDS011;48772;55.586;37.730;2024-03-02T13:08:44;31.42;;;16.08;;
62711;SDS011;48772;55.586;37.730;2024-03-02T13:11:10;30.70;;;15.98;;
62711;SDS011;48772;55.586;37.730;2024-03-02T13:13:36;30.02;;;15.63;;
62711;SDS011;48772;55.586;37.730;2024-03-02T13:16:03;29.13;;;15.30;;
62711;SDS011;48772;55.586;37.730;2024-03-02T13:18:33;38.88;;;17.25;;
62711;SDS011;48772;55.586;37.730;2024-03-02T13:20:58;34.08;;;16.83;;
62711;SDS011;48772;55.586;37.730;2024-03-02T13:23:24;32.90;;;15.00;;
62711;SDS011;48772;55.586;37.730;2024-03-02T13:25:49;31.17;;;16.65;;
62711;SDS011;48772;55.586;37.730;2024-03-02T13:28:15;31.25;;;16.80;;
62711;SDS011;48772;55.586;37.730;2024-03-02T13:30:42;35.42;;;18.17;;
62711;SDS011;48772;55.586;37.730;2024-03-02T13:33:07;32.60;;;18.48;;
62711;SDS011;48772;55.586;37.730;2024-03-02T13:35:33;34.58;;;17.90;;
62711;SDS011;48772;55.586;37.730;2024-03-02T13:37:59;30.35;;;17.17;;
62711;SDS011;48772;55.586;37.730;2024-03-02T13:40:24;28.38;;;17.13;;
62711;SDS011;48772;55.586;37.730;2024-03-02T13:42:50;26.17;;;15.27;;
62711;SDS011;48772;55.586;37.730;2024-03-02T13:45:17;34.80;;;16.88;;
62711;SDS011;48772;55.586;37.730;2024-03-02T13:47:43;26.90;;;14.85;;
62711;SDS011;48772;55.586;37.730;2024-03-02T13:50:09;31.10;;;17.13;;
62711;SDS011;48772;55.586;37.730;2024-03-02T13:52:35;33.60;;;16.95;;
62711;SDS011;48772;55.586;37.730;2024-03-02T13:55:01;40.35;;;17.40;;
62711;SDS011;48772;55.586;37.730;2024-03-02T13:57:27;26.92;;;16.08;;
62711;SDS011;48772;55.586;37.730;2024-03-02T13:59:53;33.80;;;18.13;;
62711;SDS011;48772;55.586;37.730;2024-03-02T14:02:20;35.30;;;16.63;;
62711;SDS011;48772;55.586;37.730;2024-03-02T14:04:45;30.63;;;15.00;;
62711;SDS011;48772;55.586;37.730;2024-03-02T14:07:13;33.63;;;17.00;;
62711;SDS011;48772;55.586;37.730;2024-03-02T14:09:39;37.45;;;18.67;;
62711;SDS011;48772;55.586;37.730;2024-03-02T14:12:05;30.27;;;15.40;;